sensor_id;sensor_type;location;lat;lon;timestamp;temperature;humidity
63976;DHT22;50167;47.958;21.780;2023-08-01T00:01:04;25.11;60.27
63976;DHT22;50167;47.958;21.780;2023-08-01T00:03:31;25.14;59.95
63976;DHT22;50167;47.958;21.780;2023-08-01T00:05:58;25.18;59.85
63976;DHT22;50167;47.958;21.780;2023-08-01T00:08:24;25.17;59.97
63976;DHT22;50167;47.958;21.780;2023-08-01T00:10:51;25.23;59.78
63976;DHT22;50167;47.958;21.780;2023-08-01T00:13:17;25.32;59.45
63976;DHT22;50167;47.958;21.780;2023-08-01T00:15:43;24.90;59.48
63976;DHT22;50167;47.958;21.780;2023-08-01T00:18:09;24.01;61.06
63976;DHT22;50167;47.958;21.780;2023-08-01T00:20:36;23.23;62.93
63976;DHT22;50167;47.958;21.780;2023-08-01T00:23:02;23.40;64.52
63976;DHT22;50167;47.958;21.780;2023-08-01T00:25:29;24.25;63.26
63976;DHT22;50167;47.958;21.780;2023-08-01T00:27:55;24.71;61.71
63976;DHT22;50167;47.958;21.780;2023-08-01T00:30:22;24.94;60.62
63976;DHT22;50167;47.958;21.780;2023-08-01T00:32:48;24.95;60.29
63976;DHT22;50167;47.958;21.780;2023-08-01T00:35:15;25.02;59.82
63976;DHT22;50167;47.958;21.780;2023-08-01T00:37:42;25.02;59.59
63976;DHT22;50167;47.958;21.780;2023-08-01T00:40:09;25.02;59.49
63976;DHT22;50167;47.958;21.780;2023-08-01T00:42:38;24.63;59.52
63976;DHT22;50167;47.958;21.780;2023-08-01T00:45:07;23.64;61.29
63976;DHT22;50167;47.958;21.780;2023-08-01T00:47:34;22.85;63.26
63976;DHT22;50167;47.958;21.780;2023-08-01T00:50:01;23.07;64.97
63976;DHT22;50167;47.958;21.780;2023-08-01T00:52:28;23.91;63.34
63976;DHT22;50167;47.958;21.780;2023-08-01T00:54:55;24.38;61.73
63976;DHT22;50167;47.958;21.780;2023-08-01T00:57:21;24.43;61.03
63976;DHT22;50167;47.958;21.780;2023-08-01T00:59:47;24.49;60.72
63976;DHT22;50167;47.958;21.780;2023-08-01T01:02:14;24.54;60.68
63976;DHT22;50167;47.958;21.780;2023-08-01T01:04:40;24.67;60.33
63976;DHT22;50167;47.958;21.780;2023-08-01T01:07:07;24.77;60.07
63976;DHT22;50167;47.958;21.780;2023-08-01T01:09:33;24.73;59.45
63976;DHT22;50167;47.958;21.780;2023-08-01T01:12:01;24.33;59.06
63976;DHT22;50167;47.958;21.780;2023-08-01T01:14:27;23.39;60.89
63976;DHT22;50167;47.958;21.780;2023-08-01T01:16:54;22.57;63.18
63976;DHT22;50167;47.958;21.780;2023-08-01T01:19:21;22.76;64.73
63976;DHT22;50167;47.958;21.780;2023-08-01T01:21:48;23.48;63.38
63976;DHT22;50167;47.958;21.780;2023-08-01T01:24:16;23.95;62.01
63976;DHT22;50167;47.958;21.780;2023-08-01T01:26:45;24.11;61.25
63976;DHT22;50167;47.958;21.780;2023-08-01T01:29:11;24.20;60.60
63976;DHT22;50167;47.958;21.780;2023-08-01T01:31:38;24.27;60.51
63976;DHT22;50167;47.958;21.780;2023-08-01T01:34:05;24.40;60.06
63976;DHT22;50167;47.958;21.780;2023-08-01T01:36:31;24.47;59.82
63976;DHT22;50167;47.958;21.780;2023-08-01T01:38:57;24.54;59.33
63976;DHT22;50167;47.958;21.780;2023-08-01T01:48:35;21.75;63.84
63976;DHT22;50167;47.958;21.780;2023-08-01T01:51:02;22.06;65.37
63976;DHT22;50167;47.958;21.780;2023-08-01T01:53:28;22.88;63.97
63976;DHT22;50167;47.958;21.780;2023-08-01T01:55:54;23.32;61.93
63976;DHT22;50167;47.958;21.780;2023-08-01T01:58:21;23.39;61.47
63976;DHT22;50167;47.958;21.780;2023-08-01T02:00:49;23.58;61.00
63976;DHT22;50167;47.958;21.780;2023-08-01T02:03:15;23.68;60.34
63976;DHT22;50167;47.958;21.780;2023-08-01T02:05:41;23.74;59.95
63976;DHT22;50167;47.958;21.780;2023-08-01T02:08:08;23.81;59.57
63976;DHT22;50167;47.958;21.780;2023-08-01T02:10:34;23.41;59.01
63976;DHT22;50167;47.958;21.780;2023-08-01T02:13:00;22.51;60.44
63976;DHT22;50167;47.958;21.780;2023-08-01T02:15:27;21.70;62.27
63976;DHT22;50167;47.958;21.780;2023-08-01T02:17:53;21.82;64.42
63976;DHT22;50167;47.958;21.780;2023-08-01T02:20:19;22.61;63.01
63976;DHT22;50167;47.958;21.780;2023-08-01T02:22:45;23.09;61.12
63976;DHT22;50167;47.958;21.780;2023-08-01T02:25:12;23.32;60.05
63976;DHT22;50167;47.958;21.780;2023-08-01T02:27:38;23.46;59.15
63976;DHT22;50167;47.958;21.780;2023-08-01T02:30:06;23.00;58.74
63976;DHT22;50167;47.958;21.780;2023-08-01T02:32:33;22.03;60.40
63976;DHT22;50167;47.958;21.780;2023-08-01T02:34:59;21.25;62.27
63976;DHT22;50167;47.958;21.780;2023-08-01T02:37:25;21.51;64.12
63976;DHT22;50167;47.958;21.780;2023-08-01T02:39:52;22.40;62.41
63976;DHT22;50167;47.958;21.780;2023-08-01T02:42:19;22.83;60.59
63976;DHT22;50167;47.958;21.780;2023-08-01T02:44:45;23.07;59.45
63976;DHT22;50167;47.958;21.780;2023-08-01T02:47:11;22.61;58.97
63976;DHT22;50167;47.958;21.780;2023-08-01T02:49:38;21.65;60.68
63976;DHT22;50167;47.958;21.780;2023-08-01T02:52:04;20.87;62.72
63976;DHT22;50167;47.958;21.780;2023-08-01T02:54:30;21.14;64.30
63976;DHT22;50167;47.958;21.780;2023-08-01T02:56:57;21.92;62.82
63976;DHT22;50167;47.958;21.780;2023-08-01T02:59:23;22.43;61.56
63976;DHT22;50167;47.958;21.780;2023-08-01T03:01:50;22.72;60.22
63976;DHT22;50167;47.958;21.780;2023-08-01T03:04:16;22.93;59.23
63976;DHT22;50167;47.958;21.780;2023-08-01T03:06:42;22.60;58.54
63976;DHT22;50167;47.958;21.780;2023-08-01T03:09:08;21.66;60.12
63976;DHT22;50167;47.958;21.780;2023-08-01T03:11:38;20.91;61.66
63976;DHT22;50167;47.958;21.780;2023-08-01T03:14:04;20.28;63.69
63976;DHT22;50167;47.958;21.780;2023-08-01T03:16:31;20.68;65.33
63976;DHT22;50167;47.958;21.780;2023-08-01T03:18:57;21.57;63.73
63976;DHT22;50167;47.958;21.780;2023-08-01T03:21:25;22.14;61.72
63976;DHT22;50167;47.958;21.780;2023-08-01T03:23:52;22.47;60.75
63976;DHT22;50167;47.958;21.780;2023-08-01T03:26:19;22.75;59.57
63976;DHT22;50167;47.958;21.780;2023-08-01T03:28:45;22.40;58.64
63976;DHT22;50167;47.958;21.780;2023-08-01T03:31:11;21.47;60.23
63976;DHT22;50167;47.958;21.780;2023-08-01T03:33:38;20.66;62.47
63976;DHT22;50167;47.958;21.780;2023-08-01T03:36:04;20.89;63.99
63976;DHT22;50167;47.958;21.780;2023-08-01T03:38:30;21.70;62.83
63976;DHT22;50167;47.958;21.780;2023-08-01T03:40:57;22.09;61.12
63976;DHT22;50167;47.958;21.780;2023-08-01T03:43:23;22.35;60.24
63976;DHT22;50167;47.958;21.780;2023-08-01T03:45:51;22.57;59.51
63976;DHT22;50167;47.958;21.780;2023-08-01T03:48:17;22.24;58.71
63976;DHT22;50167;47.958;21.780;2023-08-01T03:50:44;21.36;60.24
63976;DHT22;50167;47.958;21.780;2023-08-01T03:53:10;20.63;61.75
63976;DHT22;50167;47.958;21.780;2023-08-01T03:55:36;20.08;63.73
63976;DHT22;50167;47.958;21.780;2023-08-01T03:58:02;20.36;65.33
63976;DHT22;50167;47.958;21.780;2023-08-01T04:00:28;21.34;63.79
63976;DHT22;50167;47.958;21.780;2023-08-01T04:02:57;21.99;61.86
63976;DHT22;50167;47.958;21.780;2023-08-01T04:05:23;22.34;60.46
63976;DHT22;50167;47.958;21.780;2023-08-01T04:07:50;22.61;59.15
63976;DHT22;50167;47.958;21.780;2023-08-01T04:10:16;22.20;58.32
63976;DHT22;50167;47.958;21.780;2023-08-01T04:12:42;21.21;60.28
63976;DHT22;50167;47.958;21.780;2023-08-01T04:15:09;20.41;62.48
63976;DHT22;50167;47.958;21.780;2023-08-01T04:17:36;20.56;64.25
63976;DHT22;50167;47.958;21.780;2023-08-01T04:20:02;21.13;63.12
63976;DHT22;50167;47.958;21.780;2023-08-01T04:22:29;21.62;61.71
63976;DHT22;50167;47.958;21.780;2023-08-01T04:24:55;21.97;60.87
63976;DHT22;50167;47.958;21.780;2023-08-01T04:27:22;22.24;60.34
63976;DHT22;50167;47.958;21.780;2023-08-01T04:29:48;22.41;59.69
63976;DHT22;50167;47.958;21.780;2023-08-01T04:32:15;22.52;59.39
63976;DHT22;50167;47.958;21.780;2023-08-01T04:34:42;22.19;59.27
63976;DHT22;50167;47.958;21.780;2023-08-01T04:37:08;21.45;60.49
63976;DHT22;50167;47.958;21.780;2023-08-01T04:39:36;20.84;62.02
63976;DHT22;50167;47.958;21.780;2023-08-01T04:42:03;20.39;63.84
63976;DHT22;50167;47.958;21.780;2023-08-01T04:44:29;20.90;64.59
63976;DHT22;50167;47.958;21.780;2023-08-01T04:46:56;21.78;62.37
63976;DHT22;50167;47.958;21.780;2023-08-01T04:49:22;22.27;60.64
63976;DHT22;50167;47.958;21.780;2023-08-01T04:51:50;22.67;59.68
63976;DHT22;50167;47.958;21.780;2023-08-01T04:54:17;22.60;58.49
63976;DHT22;50167;47.958;21.780;2023-08-01T04:56:43;21.86;59.91
63976;DHT22;50167;47.958;21.780;2023-08-01T04:59:09;21.28;61.41
63976;DHT22;50167;47.958;21.780;2023-08-01T05:01:35;20.89;62.40
63976;DHT22;50167;47.958;21.780;2023-08-01T05:04:02;21.27;63.43
63976;DHT22;50167;47.958;21.780;2023-08-01T05:06:28;22.21;61.85
63976;DHT22;50167;47.958;21.780;2023-08-01T05:08:54;22.70;60.00
63976;DHT22;50167;47.958;21.780;2023-08-01T05:11:21;23.06;58.96
63976;DHT22;50167;47.958;21.780;2023-08-01T05:13:48;22.83;58.05
63976;DHT22;50167;47.958;21.780;2023-08-01T05:16:14;22.16;59.41
63976;DHT22;50167;47.958;21.780;2023-08-01T05:18:40;21.62;60.81
63976;DHT22;50167;47.958;21.780;2023-08-01T05:21:06;21.24;62.65
63976;DHT22;50167;47.958;21.780;2023-08-01T05:23:33;21.49;63.42
63976;DHT22;50167;47.958;21.780;2023-08-01T05:26:00;22.43;61.20
63976;DHT22;50167;47.958;21.780;2023-08-01T05:28:26;23.16;59.67
63976;DHT22;50167;47.958;21.780;2023-08-01T05:30:52;23.15;57.72
63976;DHT22;50167;47.958;21.780;2023-08-01T05:33:18;22.55;59.19
63976;DHT22;50167;47.958;21.780;2023-08-01T05:35:45;22.09;60.64
63976;DHT22;50167;47.958;21.780;2023-08-01T05:38:11;21.75;61.75
63976;DHT22;50167;47.958;21.780;2023-08-01T05:40:37;21.54;62.58
63976;DHT22;50167;47.958;21.780;2023-08-01T05:43:04;22.16;62.81
63976;DHT22;50167;47.958;21.780;2023-08-01T05:45:33;23.23;60.07
63976;DHT22;50167;47.958;21.780;2023-08-01T05:48:01;23.78;57.80
63976;DHT22;50167;47.958;21.780;2023-08-01T05:50:27;23.30;57.96
63976;DHT22;50167;47.958;21.780;2023-08-01T05:52:53;22.82;59.53
63976;DHT22;50167;47.958;21.780;2023-08-01T05:55:19;22.48;60.47
63976;DHT22;50167;47.958;21.780;2023-08-01T05:57:46;22.30;61.13
63976;DHT22;50167;47.958;21.780;2023-08-01T06:00:15;22.09;61.68
63976;DHT22;50167;47.958;21.780;2023-08-01T06:02:42;21.99;62.62
63976;DHT22;50167;47.958;21.780;2023-08-01T06:05:08;22.75;61.57
63976;DHT22;50167;47.958;21.780;2023-08-01T06:07:34;24.06;59.24
63976;DHT22;50167;47.958;21.780;2023-08-01T06:10:00;24.42;56.52
63976;DHT22;50167;47.958;21.780;2023-08-01T06:12:27;23.92;57.44
63976;DHT22;50167;47.958;21.780;2023-08-01T06:14:54;23.58;58.38
63976;DHT22;50167;47.958;21.780;2023-08-01T06:21:19;23.16;59.78
63976;DHT22;50167;47.958;21.780;2023-08-01T06:23:46;23.13;60.30
63976;DHT22;50167;47.958;21.780;2023-08-01T06:26:12;23.16;60.18
63976;DHT22;50167;47.958;21.780;2023-08-01T06:28:38;23.19;60.45
63976;DHT22;50167;47.958;21.780;2023-08-01T06:31:04;23.16;60.34
63976;DHT22;50167;47.958;21.780;2023-08-01T06:33:30;23.18;59.81
63976;DHT22;50167;47.958;21.780;2023-08-01T06:35:56;23.20;60.23
63976;DHT22;50167;47.958;21.780;2023-08-01T06:38:23;23.25;59.88
63976;DHT22;50167;47.958;21.780;2023-08-01T06:40:49;23.33;60.04
63976;DHT22;50167;47.958;21.780;2023-08-01T06:43:15;23.40;59.18
63976;DHT22;50167;47.958;21.780;2023-08-01T06:45:43;23.44;58.72
63976;DHT22;50167;47.958;21.780;2023-08-01T06:48:10;23.41;59.17
63976;DHT22;50167;47.958;21.780;2023-08-01T06:50:36;23.43;58.93
63976;DHT22;50167;47.958;21.780;2023-08-01T06:53:03;23.46;58.77
63976;DHT22;50167;47.958;21.780;2023-08-01T06:55:29;23.47;58.86
63976;DHT22;50167;47.958;21.780;2023-08-01T06:57:55;23.53;58.38
63976;DHT22;50167;47.958;21.780;2023-08-01T07:00:21;23.54;58.71
63976;DHT22;50167;47.958;21.780;2023-08-01T07:02:48;23.62;59.01
63976;DHT22;50167;47.958;21.780;2023-08-01T07:05:14;23.78;59.04
63976;DHT22;50167;47.958;21.780;2023-08-01T07:07:40;23.84;58.30
63976;DHT22;50167;47.958;21.780;2023-08-01T07:10:08;23.92;57.96
63976;DHT22;50167;47.958;21.780;2023-08-01T07:12:34;24.02;55.22
63976;DHT22;50167;47.958;21.780;2023-08-01T07:15:00;24.09;56.02
63976;DHT22;50167;47.958;21.780;2023-08-01T07:17:27;24.16;55.87
63976;DHT22;50167;47.958;21.780;2023-08-01T07:19:53;24.20;56.31
63976;DHT22;50167;47.958;21.780;2023-08-01T07:22:20;24.35;56.12
63976;DHT22;50167;47.958;21.780;2023-08-01T07:24:47;24.46;56.02
63976;DHT22;50167;47.958;21.780;2023-08-01T07:27:13;24.60;55.43
63976;DHT22;50167;47.958;21.780;2023-08-01T07:29:40;24.75;55.41
63976;DHT22;50167;47.958;21.780;2023-08-01T07:32:06;24.92;55.26
63976;DHT22;50167;47.958;21.780;2023-08-01T07:34:33;25.02;53.38
63976;DHT22;50167;47.958;21.780;2023-08-01T07:36:59;25.08;53.98
63976;DHT22;50167;47.958;21.780;2023-08-01T07:39:25;25.14;51.98
63976;DHT22;50167;47.958;21.780;2023-08-01T07:41:51;25.19;51.84
63976;DHT22;50167;47.958;21.780;2023-08-01T07:44:17;25.19;51.83
63976;DHT22;50167;47.958;21.780;2023-08-01T07:46:43;25.19;52.43
63976;DHT22;50167;47.958;21.780;2023-08-01T07:49:10;25.23;51.99
63976;DHT22;50167;47.958;21.780;2023-08-01T07:51:36;25.30;52.36
63976;DHT22;50167;47.958;21.780;2023-08-01T07:54:02;25.39;52.16
63976;DHT22;50167;47.958;21.780;2023-08-01T07:56:28;25.50;52.44
63976;DHT22;50167;47.958;21.780;2023-08-01T07:58:55;25.62;50.98
63976;DHT22;50167;47.958;21.780;2023-08-01T08:01:21;25.65;51.12
63976;DHT22;50167;47.958;21.780;2023-08-01T08:03:48;25.73;51.08
63976;DHT22;50167;47.958;21.780;2023-08-01T08:06:14;25.84;51.24
63976;DHT22;50167;47.958;21.780;2023-08-01T08:08:41;25.90;51.47
63976;DHT22;50167;47.958;21.780;2023-08-01T08:11:07;26.01;51.42
63976;DHT22;50167;47.958;21.780;2023-08-01T08:13:33;26.11;50.66
63976;DHT22;50167;47.958;21.780;2023-08-01T08:15:59;26.20;50.99
63976;DHT22;50167;47.958;21.780;2023-08-01T08:18:25;26.30;50.31
63976;DHT22;50167;47.958;21.780;2023-08-01T08:20:52;26.45;49.72
63976;DHT22;50167;47.958;21.780;2023-08-01T08:23:18;26.59;48.74
63976;DHT22;50167;47.958;21.780;2023-08-01T08:25:51;26.67;48.53
63976;DHT22;50167;47.958;21.780;2023-08-01T08:28:29;26.72;48.00
63976;DHT22;50167;47.958;21.780;2023-08-01T08:30:56;26.78;47.58
63976;DHT22;50167;47.958;21.780;2023-08-01T08:33:22;26.87;46.71
63976;DHT22;50167;47.958;21.780;2023-08-01T08:35:49;26.90;46.73
63976;DHT22;50167;47.958;21.780;2023-08-01T08:38:16;26.94;46.79
63976;DHT22;50167;47.958;21.780;2023-08-01T08:47:44;27.22;44.66
63976;DHT22;50167;47.958;21.780;2023-08-01T08:54:09;27.31;44.26
63976;DHT22;50167;47.958;21.780;2023-08-01T08:56:35;27.34;45.48
63976;DHT22;50167;47.958;21.780;2023-08-01T08:59:02;27.41;44.67
63976;DHT22;50167;47.958;21.780;2023-08-01T09:01:28;27.54;44.08
63976;DHT22;50167;47.958;21.780;2023-08-01T09:03:56;27.62;44.49
63976;DHT22;50167;47.958;21.780;2023-08-01T09:06:50;27.66;43.62
63976;DHT22;50167;47.958;21.780;2023-08-01T09:13:18;27.86;44.37
63976;DHT22;50167;47.958;21.780;2023-08-01T09:15:45;28.00;42.45
63976;DHT22;50167;47.958;21.780;2023-08-01T09:18:12;28.06;43.11
63976;DHT22;50167;47.958;21.780;2023-08-01T09:20:47;28.13;42.66
63976;DHT22;50167;47.958;21.780;2023-08-01T09:23:15;28.17;43.20
63976;DHT22;50167;47.958;21.780;2023-08-01T09:25:42;28.13;42.84
63976;DHT22;50167;47.958;21.780;2023-08-01T09:28:22;28.00;43.13
63976;DHT22;50167;47.958;21.780;2023-08-01T09:30:54;27.89;42.31
63976;DHT22;50167;47.958;21.780;2023-08-01T09:33:22;27.83;42.86
63976;DHT22;50167;47.958;21.780;2023-08-01T09:35:50;27.87;41.25
63976;DHT22;50167;47.958;21.780;2023-08-01T09:38:17;27.77;41.24
63976;DHT22;50167;47.958;21.780;2023-08-01T09:40:44;27.72;42.63
63976;DHT22;50167;47.958;21.780;2023-08-01T09:43:12;27.83;41.95
63976;DHT22;50167;47.958;21.780;2023-08-01T09:45:53;27.95;42.50
63976;DHT22;50167;47.958;21.780;2023-08-01T09:48:28;28.10;42.28
63976;DHT22;50167;47.958;21.780;2023-08-01T09:51:15;28.24;41.60
63976;DHT22;50167;47.958;21.780;2023-08-01T09:53:56;28.31;41.53
63976;DHT22;50167;47.958;21.780;2023-08-01T09:56:28;28.35;42.28
63976;DHT22;50167;47.958;21.780;2023-08-01T09:58:55;28.47;41.58
63976;DHT22;50167;47.958;21.780;2023-08-01T10:01:23;28.54;41.43
63976;DHT22;50167;47.958;21.780;2023-08-01T10:03:52;28.65;41.41
63976;DHT22;50167;47.958;21.780;2023-08-01T10:06:23;28.74;40.99
63976;DHT22;50167;47.958;21.780;2023-08-01T10:08:52;28.75;40.18
63976;DHT22;50167;47.958;21.780;2023-08-01T10:11:20;28.75;40.97
63976;DHT22;50167;47.958;21.780;2023-08-01T10:13:53;28.77;40.41
63976;DHT22;50167;47.958;21.780;2023-08-01T10:16:20;28.79;41.36
63976;DHT22;50167;47.958;21.780;2023-08-01T10:18:47;28.83;41.21
63976;DHT22;50167;47.958;21.780;2023-08-01T10:21:16;28.91;40.79
63976;DHT22;50167;47.958;21.780;2023-08-01T10:23:44;29.03;40.56
63976;DHT22;50167;47.958;21.780;2023-08-01T10:26:11;29.19;40.23
63976;DHT22;50167;47.958;21.780;2023-08-01T10:28:41;29.36;39.75
63976;DHT22;50167;47.958;21.780;2023-08-01T10:31:14;29.51;40.20
63976;DHT22;50167;47.958;21.780;2023-08-01T10:33:44;29.58;39.26
63976;DHT22;50167;47.958;21.780;2023-08-01T10:36:21;29.61;39.58
63976;DHT22;50167;47.958;21.780;2023-08-01T10:38:57;29.63;39.35
63976;DHT22;50167;47.958;21.780;2023-08-01T10:44:08;29.65;39.85
63976;DHT22;50167;47.958;21.780;2023-08-01T10:47:03;29.72;39.19
63976;DHT22;50167;47.958;21.780;2023-08-01T10:50:00;29.75;39.81
63976;DHT22;50167;47.958;21.780;2023-08-01T10:52:27;29.77;39.04
63976;DHT22;50167;47.958;21.780;2023-08-01T10:55:11;29.84;38.35
63976;DHT22;50167;47.958;21.780;2023-08-01T10:57:49;29.89;39.32
63976;DHT22;50167;47.958;21.780;2023-08-01T11:00:43;29.91;39.18
63976;DHT22;50167;47.958;21.780;2023-08-01T11:03:10;29.96;39.01
63976;DHT22;50167;47.958;21.780;2023-08-01T11:05:39;29.96;38.69
63976;DHT22;50167;47.958;21.780;2023-08-01T11:08:17;29.96;37.75
63976;DHT22;50167;47.958;21.780;2023-08-01T11:10:39;29.98;38.60
63976;DHT22;50167;47.958;21.780;2023-08-01T11:13:05;29.91;38.45
63976;DHT22;50167;47.958;21.780;2023-08-01T11:15:31;29.84;38.72
63976;DHT22;50167;47.958;21.780;2023-08-01T11:17:58;29.84;38.78
63976;DHT22;50167;47.958;21.780;2023-08-01T11:20:25;29.85;38.91
63976;DHT22;50167;47.958;21.780;2023-08-01T11:22:56;29.91;38.84
63976;DHT22;50167;47.958;21.780;2023-08-01T11:25:35;29.95;39.04
63976;DHT22;50167;47.958;21.780;2023-08-01T11:28:10;30.02;39.21
63976;DHT22;50167;47.958;21.780;2023-08-01T11:30:37;30.08;39.16
63976;DHT22;50167;47.958;21.780;2023-08-01T11:33:22;30.16;39.44
63976;DHT22;50167;47.958;21.780;2023-08-01T11:35:55;30.20;38.69
63976;DHT22;50167;47.958;21.780;2023-08-01T11:38:27;30.32;38.32
63976;DHT22;50167;47.958;21.780;2023-08-01T11:40:57;30.43;38.59
63976;DHT22;50167;47.958;21.780;2023-08-01T11:43:23;30.50;37.96
63976;DHT22;50167;47.958;21.780;2023-08-01T11:45:52;30.52;38.71
63976;DHT22;50167;47.958;21.780;2023-08-01T11:52:37;30.66;38.68
63976;DHT22;50167;47.958;21.780;2023-08-01T11:55:04;30.59;38.35
63976;DHT22;50167;47.958;21.780;2023-08-01T11:57:30;30.56;38.85
63976;DHT22;50167;47.958;21.780;2023-08-01T11:59:56;30.56;37.79
63976;DHT22;50167;47.958;21.780;2023-08-01T12:02:28;30.53;38.20
63976;DHT22;50167;47.958;21.780;2023-08-01T12:04:58;30.59;39.03
63976;DHT22;50167;47.958;21.780;2023-08-01T12:07:27;30.73;38.56
63976;DHT22;50167;47.958;21.780;2023-08-01T12:10:04;30.81;37.73
63976;DHT22;50167;47.958;21.780;2023-08-01T12:12:31;30.78;37.08
63976;DHT22;50167;47.958;21.780;2023-08-01T12:14:58;30.71;37.01
63976;DHT22;50167;47.958;21.780;2023-08-01T12:17:24;30.64;37.43
63976;DHT22;50167;47.958;21.780;2023-08-01T12:19:50;30.64;37.89
63976;DHT22;50167;47.958;21.780;2023-08-01T12:22:16;30.64;37.70
63976;DHT22;50167;47.958;21.780;2023-08-01T12:24:42;30.67;37.80
63976;DHT22;50167;47.958;21.780;2023-08-01T12:27:09;30.70;36.85
63976;DHT22;50167;47.958;21.780;2023-08-01T12:29:36;30.77;37.14
63976;DHT22;50167;47.958;21.780;2023-08-01T12:32:04;30.87;36.48
63976;DHT22;50167;47.958;21.780;2023-08-01T12:34:30;30.98;37.22
63976;DHT22;50167;47.958;21.780;2023-08-01T12:36:56;31.15;36.64
63976;DHT22;50167;47.958;21.780;2023-08-01T12:39:22;31.33;36.03
63976;DHT22;50167;47.958;21.780;2023-08-01T12:41:50;31.52;35.65
63976;DHT22;50167;47.958;21.780;2023-08-01T12:44:17;31.69;36.43
63976;DHT22;50167;47.958;21.780;2023-08-01T12:46:43;31.79;35.45
63976;DHT22;50167;47.958;21.780;2023-08-01T12:49:10;32.01;34.88
63976;DHT22;50167;47.958;21.780;2023-08-01T12:51:36;32.28;34.46
63976;DHT22;50167;47.958;21.780;2023-08-01T12:54:02;32.63;33.94
63976;DHT22;50167;47.958;21.780;2023-08-01T12:56:28;33.06;33.05
63976;DHT22;50167;47.958;21.780;2023-08-01T12:58:54;33.55;32.05
63976;DHT22;50167;47.958;21.780;2023-08-01T13:01:21;34.16;31.75
63976;DHT22;50167;47.958;21.780;2023-08-01T13:03:47;34.81;30.09
63976;DHT22;50167;47.958;21.780;2023-08-01T13:06:13;35.09;29.84
63976;DHT22;50167;47.958;21.780;2023-08-01T13:08:40;35.05;29.72
63976;DHT22;50167;47.958;21.780;2023-08-01T13:11:13;34.98;29.84
63976;DHT22;50167;47.958;21.780;2023-08-01T13:13:43;35.29;29.84
63976;DHT22;50167;47.958;21.780;2023-08-01T13:16:09;35.75;30.04
63976;DHT22;50167;47.958;21.780;2023-08-01T13:18:36;36.24;27.92
63976;DHT22;50167;47.958;21.780;2023-08-01T13:21:04;36.71;27.43
63976;DHT22;50167;47.958;21.780;2023-08-01T13:23:30;37.09;27.51
63976;DHT22;50167;47.958;21.780;2023-08-01T13:25:56;37.24;26.40
63976;DHT22;50167;47.958;21.780;2023-08-01T13:28:24;37.20;26.91
63976;DHT22;50167;47.958;21.780;2023-08-01T13:30:51;37.06;26.87
63976;DHT22;50167;47.958;21.780;2023-08-01T13:33:17;36.92;26.30
63976;DHT22;50167;47.958;21.780;2023-08-01T13:35:43;36.65;25.90
63976;DHT22;50167;47.958;21.780;2023-08-01T13:38:10;36.79;26.58
63976;DHT22;50167;47.958;21.780;2023-08-01T13:40:37;37.20;26.38
63976;DHT22;50167;47.958;21.780;2023-08-01T13:43:04;37.47;26.25
63976;DHT22;50167;47.958;21.780;2023-08-01T13:45:31;37.34;26.17
63976;DHT22;50167;47.958;21.780;2023-08-01T13:47:57;36.89;26.93
63976;DHT22;50167;47.958;21.780;2023-08-01T13:50:25;36.42;27.42
63976;DHT22;50167;47.958;21.780;2023-08-01T13:52:52;35.89;28.16
63976;DHT22;50167;47.958;21.780;2023-08-01T13:55:18;35.45;28.48
63976;DHT22;50167;47.958;21.780;2023-08-01T13:57:45;35.05;29.15
63976;DHT22;50167;47.958;21.780;2023-08-01T14:00:12;34.73;29.65
63976;DHT22;50167;47.958;21.780;2023-08-01T14:02:38;34.66;30.15
63976;DHT22;50167;47.958;21.780;2023-08-01T14:05:05;35.18;30.25
63976;DHT22;50167;47.958;21.780;2023-08-01T14:07:46;35.87;29.05
63976;DHT22;50167;47.958;21.780;2023-08-01T14:10:08;36.41;28.41
63976;DHT22;50167;47.958;21.780;2023-08-01T14:12:35;36.90;27.53
63976;DHT22;50167;47.958;21.780;2023-08-01T14:15:01;37.21;26.67
63976;DHT22;50167;47.958;21.780;2023-08-01T14:17:27;37.50;26.32
63976;DHT22;50167;47.958;21.780;2023-08-01T14:19:53;37.88;25.26
63976;DHT22;50167;47.958;21.780;2023-08-01T14:22:19;38.19;25.11
63976;DHT22;50167;47.958;21.780;2023-08-01T14:24:46;38.46;25.31
63976;DHT22;50167;47.958;21.780;2023-08-01T14:27:12;38.78;24.56
63976;DHT22;50167;47.958;21.780;2023-08-01T14:29:38;38.87;24.27
63976;DHT22;50167;47.958;21.780;2023-08-01T14:32:07;38.74;23.99
63976;DHT22;50167;47.958;21.780;2023-08-01T14:34:33;38.53;24.44
63976;DHT22;50167;47.958;21.780;2023-08-01T14:36:59;38.30;24.28
63976;DHT22;50167;47.958;21.780;2023-08-01T14:39:26;38.25;24.57
63976;DHT22;50167;47.958;21.780;2023-08-01T14:41:52;38.18;24.87
63976;DHT22;50167;47.958;21.780;2023-08-01T14:44:18;38.09;24.61
63976;DHT22;50167;47.958;21.780;2023-08-01T14:46:45;37.89;25.01
63976;DHT22;50167;47.958;21.780;2023-08-01T14:49:11;37.57;25.06
63976;DHT22;50167;47.958;21.780;2023-08-01T14:51:37;37.19;25.52
63976;DHT22;50167;47.958;21.780;2023-08-01T14:54:03;36.73;26.27
63976;DHT22;50167;47.958;21.780;2023-08-01T14:56:30;36.30;26.55
63976;DHT22;50167;47.958;21.780;2023-08-01T14:58:56;35.93;27.19
63976;DHT22;50167;47.958;21.780;2023-08-01T15:01:23;35.64;27.44
63976;DHT22;50167;47.958;21.780;2023-08-01T15:03:50;35.35;27.70
63976;DHT22;50167;47.958;21.780;2023-08-01T15:06:16;34.87;27.87
63976;DHT22;50167;47.958;21.780;2023-08-01T15:08:42;34.37;28.90
63976;DHT22;50167;47.958;21.780;2023-08-01T15:11:09;33.85;29.46
63976;DHT22;50167;47.958;21.780;2023-08-01T15:13:35;33.41;30.68
63976;DHT22;50167;47.958;21.780;2023-08-01T15:16:02;33.00;31.00
63976;DHT22;50167;47.958;21.780;2023-08-01T15:18:28;32.57;31.64
63976;DHT22;50167;47.958;21.780;2023-08-01T15:20:55;32.17;32.85
63976;DHT22;50167;47.958;21.780;2023-08-01T15:23:21;31.75;33.23
63976;DHT22;50167;47.958;21.780;2023-08-01T15:25:55;31.40;33.58
63976;DHT22;50167;47.958;21.780;2023-08-01T15:28:23;31.09;34.44
63976;DHT22;50167;47.958;21.780;2023-08-01T15:31:01;30.84;34.76
63976;DHT22;50167;47.958;21.780;2023-08-01T15:33:32;30.54;34.92
63976;DHT22;50167;47.958;21.780;2023-08-01T15:36:05;30.29;35.39
63976;DHT22;50167;47.958;21.780;2023-08-01T15:38:34;30.04;36.23
63976;DHT22;50167;47.958;21.780;2023-08-01T15:41:01;29.85;36.61
63976;DHT22;50167;47.958;21.780;2023-08-01T15:43:39;29.65;36.87
63976;DHT22;50167;47.958;21.780;2023-08-01T15:46:07;29.50;37.57
63976;DHT22;50167;47.958;21.780;2023-08-01T15:48:34;29.37;38.01
63976;DHT22;50167;47.958;21.780;2023-08-01T15:51:02;29.25;38.56